Time;durP1;ratioP1;P1;durP2;ratioP2;P2;SDS_P1;SDS_P2;PMS_P1;PMS_P2;Temp;Humidity;BMP_temperature;BMP_pressure;BME280_temperature;BME280_humidity;BME280_pressure;Samples;Min_cycle;Max_cycle;Signal;HPM_P1;HPM_P2
2021/12/24 00:00:39;;;;;;;101.88;30.88;;;5.90;99.90;;;;;;5090141;28;20047;-83
2021/12/24 00:03:06;;;;;;;95.32;30.10;;;5.90;99.90;;;;;;5071467;28;20520;-83
2021/12/24 00:05:32;;;;;;;84.07;29.02;;;5.90;99.90;;;;;;5093616;28;20036;-83
2021/12/24 00:07:58;;;;;;;95.72;30.00;;;6.00;99.90;;;;;;5086648;28;20164;-83
2021/12/24 00:10:24;;;;;;;81.35;27.25;;;6.00;99.90;;;;;;5073496;28;20492;-82
2021/12/24 00:12:59;;;;;;;87.07;29.50;;;6.00;99.90;;;;;;5073368;28;20086;-83
2021/12/24 00:22:06;;;;;;;77.78;26.52;;;6.10;99.90;;;;;;5064181;27;1148723;-83
2021/12/24 00:35:06;;;;;;;88.78;29.10;;;6.10;99.90;;;;;;5089114;28;20055;-83
2021/12/24 00:37:16;;;;;;;78.15;25.75;;;6.20;99.90;;;;;;5087332;28;20409;-83
2021/12/24 00:39:51;;;;;;;81.97;25.30;;;6.20;99.90;;;;;;5075372;28;20035;-83
2021/12/24 00:42:16;;;;;;;63.22;23.33;;;6.20;99.90;;;;;;5068581;28;20024;-83
2021/12/24 00:44:42;;;;;;;72.15;24.95;;;6.30;99.90;;;;;;5105277;27;20481;-83
2021/12/24 00:47:08;;;;;;;64.35;24.50;;;6.30;99.90;;;;;;5087124;28;20032;-83
2021/12/24 00:49:33;;;;;;;61.25;22.55;;;6.30;99.90;;;;;;5088930;28;20067;-83
2021/12/24 00:57:28;;;;;;;57.35;20.65;;;6.40;99.90;;;;;;5091410;28;20043;-83
2021/12/24 00:59:53;;;;;;;59.58;20.63;;;6.40;99.90;;;;;;5091764;28;20051;-83
2021/12/24 01:02:19;;;;;;;52.97;19.35;;;6.50;99.90;;;;;;5085057;28;20418;-83
2021/12/24 01:04:45;;;;;;;52.80;19.85;;;6.40;99.90;;;;;;5076505;28;20040;-83
2021/12/24 01:07:10;;;;;;;49.83;18.77;;;6.50;99.90;;;;;;5074827;28;20031;-83
2021/12/24 01:09:36;;;;;;;45.00;18.08;;;6.50;99.90;;;;;;5072042;28;20371;-83
2021/12/24 01:12:02;;;;;;;47.97;18.45;;;6.50;99.90;;;;;;5091958;28;20038;-83
2021/12/24 01:14:29;;;;;;;42.97;17.73;;;6.50;99.90;;;;;;5090286;28;20123;-83
2021/12/24 01:19:33;;;;;;;40.95;16.15;;;6.50;99.90;;;;;;5088190;28;20071;-83
2021/12/24 01:24:33;;;;;;;39.35;15.43;;;6.60;99.90;;;;;;5091946;28;20052;-83
2021/12/24 01:27:12;;;;;;;36.45;15.18;;;6.60;99.90;;;;;;5073246;28;20032;-83
2021/12/24 01:29:55;;;;;;;39.70;15.18;;;6.60;99.90;;;;;;5089967;28;20078;-83
2021/12/24 01:38:10;;;;;;;35.70;13.52;;;6.60;99.90;;;;;;5094353;28;20048;-83
2021/12/24 01:40:51;;;;;;;34.15;13.90;;;6.60;99.90;;;;;;5089408;28;20040;-83
2021/12/24 01:43:17;;;;;;;29.65;12.80;;;6.70;99.90;;;;;;5070390;28;20505;-83
2021/12/24 01:45:47;;;;;;;32.15;13.43;;;6.60;99.90;;;;;;5070516;28;20401;-83
2021/12/24 01:48:13;;;;;;;38.03;15.02;;;6.70;99.90;;;;;;5086370;28;20401;-83
2021/12/24 01:50:42;;;;;;;36.00;14.05;;;6.70;99.90;;;;;;5066197;28;20029;-84
2021/12/24 01:53:08;;;;;;;31.85;12.95;;;6.70;99.90;;;;;;5080775;28;20071;-83
2021/12/24 01:55:36;;;;;;;28.60;12.15;;;6.70;99.90;;;;;;5095804;28;20035;-83
2021/12/24 01:58:02;;;;;;;32.85;12.75;;;6.80;99.90;;;;;;5097460;28;20039;-83
2021/12/24 02:00:38;;;;;;;30.00;12.52;;;6.80;99.90;;;;;;5085621;28;20059;-84
2021/12/24 02:03:05;;;;;;;31.63;12.48;;;6.80;99.90;;;;;;5072555;28;20040;-84
2021/12/24 02:05:31;;;;;;;29.05;11.55;;;6.80;99.90;;;;;;5103005;28;20401;-84
2021/12/24 02:07:58;;;;;;;27.58;11.48;;;6.80;99.90;;;;;;5096841;28;20036;-83
2021/12/24 02:10:24;;;;;;;26.80;11.80;;;6.80;99.90;;;;;;5074260;28;20207;-83
2021/12/24 02:12:50;;;;;;;33.05;11.90;;;6.90;99.90;;;;;;5094733;28;20138;-83
2021/12/24 02:15:31;;;;;;;30.20;12.90;;;6.90;99.90;;;;;;5105596;28;20038;-83
2021/12/24 02:28:39;;;;;;;28.75;12.70;;;6.90;99.90;;;;;;5098071;28;20039;-84
2021/12/24 02:31:13;;;;;;;33.75;14.00;;;6.90;99.90;;;;;;5085854;28;20044;-84
2021/12/24 02:33:39;;;;;;;28.63;12.88;;;7.00;99.90;;;;;;5088615;28;20512;-84
2021/12/24 02:36:05;;;;;;;28.92;11.93;;;7.00;99.90;;;;;;5104227;28;20485;-84
2021/12/24 02:38:31;;;;;;;30.20;11.70;;;7.00;99.90;;;;;;5071300;28;20048;-84
2021/12/24 02:40:58;;;;;;;27.67;11.68;;;7.00;99.90;;;;;;5073917;28;20028;-84
2021/12/24 02:43:25;;;;;;;26.33;11.43;;;7.00;99.90;;;;;;5073470;28;20051;-83
2021/12/24 02:45:55;;;;;;;20.98;10.43;;;7.00;99.90;;;;;;5070499;28;20486;-84
2021/12/24 02:53:57;;;;;;;23.83;11.15;;;7.10;99.90;;;;;;5087058;28;20044;-84
2021/12/24 02:56:27;;;;;;;28.40;11.43;;;7.10;99.90;;;;;;5074173;28;20093;-84
2021/12/24 02:58:53;;;;;;;23.08;10.75;;;7.10;99.90;;;;;;5072651;28;20367;-83
2021/12/24 03:01:23;;;;;;;22.27;10.48;;;7.10;99.90;;;;;;5070385;28;20034;-84
2021/12/24 03:03:49;;;;;;;26.45;10.70;;;7.20;99.90;;;;;;5092207;28;20046;-84
2021/12/24 03:06:16;;;;;;;23.25;10.05;;;7.20;99.90;;;;;;5077981;28;20032;-84
2021/12/24 03:08:41;;;;;;;22.35;9.57;;;7.20;99.90;;;;;;5072234;28;20217;-83
2021/12/24 03:11:07;;;;;;;20.83;10.40;;;7.20;99.90;;;;;;5094840;28;20040;-83
2021/12/24 03:13:35;;;;;;;24.60;10.45;;;7.20;99.90;;;;;;5111501;27;20040;-83
2021/12/24 03:16:02;;;;;;;23.67;10.07;;;7.30;99.90;;;;;;5074195;28;20027;-83
2021/12/24 03:18:30;;;;;;;18.77;8.98;;;7.30;99.90;;;;;;5096601;28;20534;-83
2021/12/24 03:21:08;;;;;;;22.33;9.43;;;7.30;99.90;;;;;;5075596;28;20052;-83
2021/12/24 03:23:38;;;;;;;29.10;10.80;;;7.40;99.90;;;;;;5072897;28;20458;-83
2021/12/24 03:26:05;;;;;;;39.28;12.73;;;7.40;99.90;;;;;;5084374;28;20033;-84
2021/12/24 03:28:30;;;;;;;46.67;13.85;;;7.50;99.90;;;;;;5104927;27;20067;-83
2021/12/24 03:30:57;;;;;;;46.85;13.77;;;7.50;99.90;;;;;;5071679;28;20109;-84
2021/12/24 03:33:22;;;;;;;41.75;13.95;;;7.50;99.90;;;;;;5071517;28;20498;-84
2021/12/24 03:35:48;;;;;;;45.90;14.57;;;7.60;99.90;;;;;;5072811;28;20036;-83
2021/12/24 03:38:14;;;;;;;59.15;16.42;;;7.70;99.90;;;;;;5078173;28;20028;-83
2021/12/24 03:40:39;;;;;;;54.25;16.48;;;7.70;99.90;;;;;;5074219;28;20311;-83
2021/12/24 03:43:05;;;;;;;69.97;18.55;;;7.70;99.90;;;;;;5095814;28;20040;-83
2021/12/24 03:45:41;;;;;;;57.95;18.23;;;7.80;99.90;;;;;;5074795;28;20125;-83
2021/12/24 03:48:16;;;;;;;60.60;19.13;;;7.70;99.90;;;;;;5076599;28;20498;-83
2021/12/24 03:50:54;;;;;;;64.95;20.02;;;7.80;99.90;;;;;;5071570;28;20456;-83
2021/12/24 03:56:04;;;;;;;59.85;18.80;;;7.90;99.90;;;;;;5093205;28;20486;-83
2021/12/24 03:58:30;;;;;;;73.32;20.42;;;7.90;99.90;;;;;;5093474;28;20039;-84
2021/12/24 04:00:56;;;;;;;70.45;21.10;;;7.90;99.90;;;;;;5092338;28;20512;-84
2021/12/24 04:03:22;;;;;;;71.88;20.35;;;8.00;99.90;;;;;;5088310;28;20035;-84
2021/12/24 04:05:47;;;;;;;73.07;21.95;;;7.90;99.90;;;;;;5078967;28;20061;-83
2021/12/24 04:08:14;;;;;;;59.70;19.63;;;8.00;99.90;;;;;;5090946;28;20071;-83
2021/12/24 04:10:40;;;;;;;63.90;19.38;;;8.00;99.90;;;;;;5074572;28;20072;-84
2021/12/24 04:13:11;;;;;;;69.47;19.95;;;8.00;99.90;;;;;;5093567;28;20086;-84
2021/12/24 04:15:38;;;;;;;63.50;18.45;;;8.00;99.90;;;;;;5094147;28;20039;-84
2021/12/24 04:18:16;;;;;;;56.80;17.15;;;8.10;99.90;;;;;;5106181;27;20036;-84
2021/12/24 04:26:11;;;;;;;59.13;19.65;;;8.00;99.90;;;;;;5089752;28;20040;-84
2021/12/24 04:28:37;;;;;;;64.20;20.15;;;8.00;99.90;;;;;;5103689;28;20099;-83
2021/12/24 04:31:03;;;;;;;73.13;21.38;;;8.10;99.90;;;;;;5106700;27;20054;-84
2021/12/24 04:33:35;;;;;;;73.20;22.60;;;8.10;99.90;;;;;;5076666;28;20048;-84
2021/12/24 04:36:20;;;;;;;85.40;24.23;;;8.10;99.90;;;;;;5109527;27;20043;-84
2021/12/24 04:52:45;;;;;;;88.63;27.52;;;8.20;99.90;;;;;;5083679;28;20036;-83
2021/12/24 05:03:29;;;;;;;83.55;26.58;;;8.20;99.90;;;;;;5091744;28;20040;-84
2021/12/24 05:06:14;;;;;;;89.15;26.33;;;8.20;99.90;;;;;;5073703;28;20038;-84
2021/12/24 05:08:52;;;;;;;81.18;25.83;;;8.20;99.90;;;;;;5089919;28;20039;-83
2021/12/24 05:11:18;;;;;;;82.03;24.95;;;8.20;99.90;;;;;;5084511;28;20517;-83
2021/12/24 05:13:44;;;;;;;72.90;23.98;;;8.20;99.90;;;;;;5078041;28;20048;-84
2021/12/24 05:16:24;;;;;;;92.35;28.38;;;8.10;99.90;;;;;;5080699;28;20424;-84
2021/12/24 05:21:42;;;;;;;73.00;24.23;;;8.20;99.90;;;;;;5087804;28;20044;-83
2021/12/24 05:24:22;;;;;;;64.28;22.90;;;8.20;99.90;;;;;;5090882;28;20040;-84
2021/12/24 05:26:51;;;;;;;72.22;25.60;;;8.20;99.90;;;;;;5105246;27;20247;-84
2021/12/24 05:29:18;;;;;;;70.10;25.13;;;8.30;99.90;;;;;;5074854;28;20042;-83
2021/12/24 05:31:44;;;;;;;71.50;24.00;;;8.20;99.90;;;;;;5074653;28;20115;-84
2021/12/24 05:34:10;;;;;;;68.40;23.42;;;8.20;99.90;;;;;;5112365;27;20227;-84
2021/12/24 05:36:36;;;;;;;80.60;23.52;;;8.20;99.90;;;;;;5088086;28;20109;-84
2021/12/24 05:39:04;;;;;;;59.05;22.30;;;8.20;99.90;;;;;;5092568;28;20497;-84
2021/12/24 05:41:30;;;;;;;67.38;23.38;;;8.20;99.90;;;;;;5079243;28;20044;-84
2021/12/24 05:43:55;;;;;;;60.80;22.98;;;8.30;99.90;;;;;;5077468;28;20043;-83
2021/12/24 05:46:21;;;;;;;60.38;23.83;;;8.20;99.90;;;;;;5075919;28;20039;-83
2021/12/24 05:48:47;;;;;;;69.28;23.55;;;8.20;99.90;;;;;;5089764;28;20074;-84
2021/12/24 05:51:12;;;;;;;65.38;24.15;;;8.30;99.90;;;;;;5071927;28;20054;-84
2021/12/24 05:53:38;;;;;;;69.20;24.38;;;8.20;99.90;;;;;;5087505;28;20044;-84
2021/12/24 05:56:05;;;;;;;65.78;22.63;;;8.30;99.90;;;;;;5090994;28;20042;-83
2021/12/24 05:58:30;;;;;;;65.78;22.85;;;8.30;99.90;;;;;;5090360;28;20067;-84
2021/12/24 06:00:56;;;;;;;66.57;24.08;;;8.30;99.90;;;;;;5092101;28;20067;-84
2021/12/24 06:03:23;;;;;;;68.43;23.15;;;8.30;99.90;;;;;;5076146;28;20035;-84
2021/12/24 06:05:49;;;;;;;70.95;22.27;;;8.30;99.90;;;;;;5072960;28;20039;-84
2021/12/24 06:08:15;;;;;;;58.30;21.20;;;8.30;99.90;;;;;;5088263;28;20028;-83
2021/12/24 06:10:42;;;;;;;64.05;21.77;;;8.20;99.90;;;;;;5077926;28;20043;-84
2021/12/24 06:13:08;;;;;;;65.93;20.73;;;8.30;99.90;;;;;;5073760;28;20036;-83
2021/12/24 06:15:42;;;;;;;55.08;20.30;;;8.30;99.90;;;;;;5093586;28;20155;-84
2021/12/24 06:21:04;;;;;;;50.08;18.85;;;8.30;99.90;;;;;;5070587;28;20609;-84
2021/12/24 06:23:30;;;;;;;46.08;17.20;;;8.30;99.90;;;;;;5073258;28;20124;-84
2021/12/24 06:25:58;;;;;;;47.00;16.60;;;8.30;99.90;;;;;;5093893;28;20402;-84
2021/12/24 06:28:25;;;;;;;43.90;15.63;;;8.30;99.90;;;;;;5090351;28;20298;-84
2021/12/24 06:30:51;;;;;;;40.85;16.23;;;8.30;99.90;;;;;;5101838;28;20482;-84
2021/12/24 06:33:17;;;;;;;46.88;15.75;;;8.30;99.90;;;;;;5073634;28;20038;-84
2021/12/24 06:35:43;;;;;;;40.10;15.48;;;8.30;99.90;;;;;;5092420;28;20040;-84
2021/12/24 06:38:09;;;;;;;40.85;14.65;;;8.30;99.90;;;;;;5086718;28;20097;-84
2021/12/24 06:40:35;;;;;;;38.50;15.68;;;8.30;99.90;;;;;;5077101;28;20063;-84
2021/12/24 06:43:01;;;;;;;44.47;14.52;;;8.20;99.90;;;;;;5084931;28;20505;-84
2021/12/24 06:45:27;;;;;;;41.95;15.13;;;8.20;99.90;;;;;;5077987;28;20051;-84
2021/12/24 06:47:55;;;;;;;40.25;14.52;;;8.30;99.90;;;;;;5088925;28;20474;-84
2021/12/24 06:50:22;;;;;;;47.78;15.02;;;8.30;99.90;;;;;;5108526;27;20036;-84
2021/12/24 06:52:49;;;;;;;42.72;15.45;;;8.20;99.90;;;;;;5075907;28;20062;-84
2021/12/24 06:55:15;;;;;;;39.00;14.65;;;8.20;99.90;;;;;;5075000;28;20044;-84
2021/12/24 06:57:41;;;;;;;42.55;14.43;;;8.30;99.90;;;;;;5095898;28;20437;-84
2021/12/24 07:00:10;;;;;;;41.13;14.75;;;8.30;99.90;;;;;;5090123;28;20032;-84
2021/12/24 07:02:35;;;;;;;39.88;14.52;;;8.20;99.90;;;;;;5094736;28;20039;-84
2021/12/24 07:05:01;;;;;;;45.90;15.25;;;8.30;99.90;;;;;;5091424;28;20040;-84
2021/12/24 07:07:27;;;;;;;38.95;13.15;;;8.30;99.90;;;;;;5076944;28;20039;-85
2021/12/24 07:09:52;;;;;;;36.38;12.80;;;8.30;99.90;;;;;;5095249;28;20036;-86
2021/12/24 07:12:18;;;;;;;39.10;14.77;;;8.20;99.90;;;;;;5074366;28;20028;-85
2021/12/24 07:14:44;;;;;;;39.28;13.85;;;8.20;99.90;;;;;;5094412;28;20061;-85
2021/12/24 07:17:10;;;;;;;39.83;13.70;;;8.20;99.90;;;;;;5099004;28;20043;-85
2021/12/24 07:19:36;;;;;;;45.05;13.07;;;8.20;99.90;;;;;;5072033;28;20044;-85
2021/12/24 07:22:02;;;;;;;37.53;13.93;;;8.20;99.90;;;;;;5067329;28;20059;-85
2021/12/24 07:24:28;;;;;;;44.78;13.57;;;8.20;99.90;;;;;;5069533;28;20040;-85
2021/12/24 07:26:54;;;;;;;48.00;13.93;;;8.20;99.90;;;;;;5067994;28;20036;-85
2021/12/24 07:29:20;;;;;;;42.70;14.63;;;8.20;99.90;;;;;;5066105;28;20047;-85
2021/12/24 07:31:45;;;;;;;45.00;13.63;;;8.20;99.90;;;;;;5097247;28;20486;-85
2021/12/24 07:34:11;;;;;;;41.03;12.70;;;8.20;99.90;;;;;;5079380;28;20040;-85
2021/12/24 07:36:37;;;;;;;35.72;12.93;;;8.20;99.90;;;;;;5094501;28;20043;-85
2021/12/24 07:39:04;;;;;;;44.67;13.48;;;8.20;99.90;;;;;;5072345;28;20409;-85
2021/12/24 07:41:29;;;;;;;35.92;11.82;;;8.20;99.90;;;;;;5107369;27;20032;-86
2021/12/24 07:43:56;;;;;;;39.20;13.40;;;8.20;99.90;;;;;;5106778;28;20096;-85
2021/12/24 07:46:24;;;;;;;39.25;11.82;;;8.20;99.90;;;;;;5076953;28;20060;-85
2021/12/24 07:48:50;;;;;;;35.33;12.20;;;8.10;99.90;;;;;;5078099;28;20200;-85
2021/12/24 07:54:02;;;;;;;34.38;12.48;;;8.20;99.90;;;;;;5092551;28;20512;-86
2021/12/24 07:56:30;;;;;;;33.50;11.13;;;8.10;99.90;;;;;;5088782;28;20054;-85
2021/12/24 07:58:56;;;;;;;27.50;9.93;;;8.10;99.90;;;;;;5073820;28;20070;-85
2021/12/24 08:01:26;;;;;;;36.00;10.45;;;8.10;99.90;;;;;;5071534;28;20047;-86
2021/12/24 08:03:54;;;;;;;35.58;10.68;;;8.10;99.90;;;;;;5069983;28;20036;-85
2021/12/24 08:06:22;;;;;;;32.05;10.35;;;8.10;99.90;;;;;;5089963;28;20185;-86
2021/12/24 08:08:48;;;;;;;29.92;10.07;;;8.10;99.90;;;;;;5113070;27;20474;-85
2021/12/24 08:11:14;;;;;;;30.35;9.60;;;8.10;99.90;;;;;;5076373;28;20058;-86
2021/12/24 08:13:40;;;;;;;28.77;9.50;;;8.10;99.90;;;;;;5110928;27;20455;-85
2021/12/24 08:16:06;;;;;;;31.10;8.80;;;8.10;99.90;;;;;;5088134;28;20028;-85
2021/12/24 08:18:32;;;;;;;31.00;9.23;;;8.10;99.90;;;;;;5095856;28;20036;-85
2021/12/24 08:20:57;;;;;;;30.63;8.48;;;8.10;99.90;;;;;;5069955;28;20523;-86
2021/12/24 08:23:23;;;;;;;34.38;8.32;;;8.10;99.90;;;;;;5073656;28;20104;-84
2021/12/24 08:25:49;;;;;;;26.55;8.45;;;8.20;99.90;;;;;;5106345;27;20393;-86
2021/12/24 08:28:14;;;;;;;31.05;7.97;;;8.10;99.90;;;;;;5072309;28;20039;-84
2021/12/24 08:30:40;;;;;;;25.15;8.43;;;8.10;99.90;;;;;;5106077;27;20490;-85
2021/12/24 08:33:07;;;;;;;27.40;9.27;;;8.10;99.90;;;;;;5070427;28;20043;-85
2021/12/24 08:35:32;;;;;;;27.70;8.32;;;8.20;99.90;;;;;;5089674;28;20052;-84
2021/12/24 08:37:58;;;;;;;25.15;9.07;;;8.20;99.90;;;;;;5099853;27;20300;-85
2021/12/24 08:40:24;;;;;;;28.80;9.43;;;8.10;99.90;;;;;;5091443;28;20126;-85
2021/12/24 08:42:50;;;;;;;26.05;8.65;;;8.20;99.90;;;;;;5071054;28;20024;-85
2021/12/24 08:45:16;;;;;;;33.83;9.38;;;8.20;99.90;;;;;;5103973;28;20540;-85
2021/12/24 08:47:42;;;;;;;35.42;9.48;;;8.10;99.90;;;;;;5085616;28;20042;-85
2021/12/24 08:50:10;;;;;;;34.30;8.70;;;8.20;99.90;;;;;;5102579;27;20032;-85
2021/12/24 08:52:36;;;;;;;32.08;9.18;;;8.20;99.90;;;;;;5098461;27;20067;-84
2021/12/24 08:55:02;;;;;;;30.42;8.90;;;8.20;99.90;;;;;;5080782;28;20044;-85
2021/12/24 08:57:28;;;;;;;30.17;9.13;;;8.20;99.90;;;;;;5082972;28;20097;-85
2021/12/24 08:59:53;;;;;;;28.65;9.02;;;8.20;99.90;;;;;;5064639;28;20191;-85
2021/12/24 09:02:19;;;;;;;33.50;10.10;;;8.20;99.90;;;;;;5099275;28;20059;-85
2021/12/24 09:04:44;;;;;;;36.75;9.93;;;8.20;99.90;;;;;;5102803;28;20119;-85
2021/12/24 09:07:10;;;;;;;30.15;9.48;;;8.20;99.90;;;;;;5066323;28;20129;-85
2021/12/24 09:09:36;;;;;;;33.95;8.57;;;8.20;99.90;;;;;;5064898;28;20085;-85
2021/12/24 09:12:02;;;;;;;30.20;9.40;;;8.20;99.90;;;;;;5065957;28;20044;-82
2021/12/24 09:14:28;;;;;;;34.35;8.68;;;8.20;99.90;;;;;;5086817;28;20477;-82
2021/12/24 09:16:54;;;;;;;30.52;9.18;;;8.20;99.90;;;;;;5089904;28;20199;-81
2021/12/24 09:19:24;;;;;;;29.55;8.80;;;8.20;99.90;;;;;;5070981;28;20280;-81
2021/12/24 09:21:51;;;;;;;33.90;9.13;;;8.20;99.90;;;;;;5089334;28;20058;-84
2021/12/24 09:24:18;;;;;;;24.98;8.90;;;8.20;99.90;;;;;;5071165;28;20024;-82
2021/12/24 09:26:45;;;;;;;30.17;8.55;;;8.20;99.90;;;;;;5106184;27;20120;-82
2021/12/24 09:29:11;;;;;;;23.77;9.00;;;8.20;99.90;;;;;;5086723;28;20032;-82
2021/12/24 09:31:38;;;;;;;35.42;9.15;;;8.20;99.90;;;;;;5094874;28;20564;-82
2021/12/24 09:34:04;;;;;;;33.58;8.40;;;8.20;99.90;;;;;;5083255;28;20035;-82
2021/12/24 09:36:30;;;;;;;32.80;7.80;;;8.20;99.90;;;;;;5069742;28;20046;-82
2021/12/24 09:39:00;;;;;;;26.05;8.05;;;8.20;99.90;;;;;;5081733;28;20122;-83
2021/12/24 09:41:26;;;;;;;23.70;8.05;;;8.20;99.90;;;;;;5072869;28;20286;-83
2021/12/24 09:43:53;;;;;;;31.05;8.35;;;8.20;99.90;;;;;;5095933;28;20480;-82
2021/12/24 09:46:18;;;;;;;33.70;7.90;;;8.20;99.90;;;;;;5068375;28;20032;-82
2021/12/24 09:48:44;;;;;;;34.03;9.02;;;8.20;99.90;;;;;;5058274;28;20085;-82
2021/12/24 09:51:10;;;;;;;29.50;7.75;;;8.20;99.90;;;;;;5077034;28;20040;-82
2021/12/24 09:53:36;;;;;;;34.67;8.50;;;8.20;99.90;;;;;;5061106;28;20024;-82
2021/12/24 09:56:04;;;;;;;34.70;8.77;;;8.30;99.90;;;;;;5099777;28;20570;-85
2021/12/24 09:58:30;;;;;;;27.77;8.27;;;8.30;99.90;;;;;;5058270;28;20032;-83
2021/12/24 10:00:55;;;;;;;27.98;8.13;;;8.30;99.90;;;;;;5109981;27;20035;-83
2021/12/24 10:03:47;;;;;;;30.52;8.18;;;8.30;99.90;;;;;;5073842;28;20485;-83
2021/12/24 10:06:16;;;;;;;26.38;8.50;;;8.30;99.90;;;;;;5070930;28;20040;-83
2021/12/24 10:08:41;;;;;;;33.92;9.30;;;8.30;99.90;;;;;;5065758;28;20043;-85
2021/12/24 10:11:11;;;;;;;36.40;8.63;;;8.30;99.90;;;;;;5062296;28;20027;-85
2021/12/24 10:13:37;;;;;;;33.95;9.43;;;8.30;99.90;;;;;;5074916;28;20539;-85
2021/12/24 10:16:17;;;;;;;31.48;8.65;;;8.30;99.90;;;;;;5082602;28;20032;-83
2021/12/24 10:18:51;;;;;;;26.95;8.50;;;8.30;99.90;;;;;;5062794;28;20032;-83
2021/12/24 10:21:23;;;;;;;34.42;9.25;;;8.30;99.90;;;;;;5083959;28;20125;-85
2021/12/24 10:24:10;;;;;;;33.35;9.13;;;8.30;99.90;;;;;;5083869;28;20040;-85
2021/12/24 10:26:38;;;;;;;33.70;9.52;;;8.30;99.90;;;;;;5078835;28;20182;-85
2021/12/24 10:29:11;;;;;;;29.40;8.75;;;8.30;99.90;;;;;;5079352;28;20123;-85
2021/12/24 10:31:45;;;;;;;39.65;9.13;;;8.30;99.90;;;;;;5072026;28;20058;-84
2021/12/24 10:34:14;;;;;;;32.35;8.80;;;8.30;99.90;;;;;;5091480;28;20092;-85
2021/12/24 10:36:56;;;;;;;37.20;9.80;;;8.30;99.90;;;;;;5075903;28;20047;-82
2021/12/24 10:39:36;;;;;;;25.42;9.38;;;8.40;99.90;;;;;;5065576;28;20061;-85
2021/12/24 10:42:12;;;;;;;35.05;9.57;;;8.40;99.90;;;;;;5114868;27;20119;-83
2021/12/24 10:44:40;;;;;;;28.52;8.57;;;8.40;99.90;;;;;;5103689;28;20090;-83
2021/12/24 10:47:09;;;;;;;18.88;6.93;;;8.40;99.90;;;;;;5097745;28;20481;-82
2021/12/24 10:52:14;;;;;;;23.80;6.40;;;8.40;99.90;;;;;;5096186;28;20051;-85
2021/12/24 10:54:54;;;;;;;19.50;6.50;;;8.30;99.90;;;;;;5076703;28;20043;-84
2021/12/24 10:57:42;;;;;;;17.13;5.55;;;8.30;99.90;;;;;;5102119;28;20035;-84
2021/12/24 11:00:19;;;;;;;17.00;5.05;;;8.30;99.90;;;;;;5068179;28;20070;-86
2021/12/24 11:02:56;;;;;;;16.98;5.10;;;8.30;99.90;;;;;;5082526;28;20037;-84
2021/12/24 11:05:35;;;;;;;7.00;2.70;;;8.30;99.90;;;;;;5083029;28;20035;-85
2021/12/24 11:08:04;;;;;;;4.80;1.63;;;8.20;99.90;;;;;;5083546;28;20039;-85
2021/12/24 11:10:37;;;;;;;3.20;2.05;;;8.00;99.90;;;;;;5092664;28;20035;-85
2021/12/24 11:13:10;;;;;;;5.28;3.00;;;7.70;99.90;;;;;;5066096;28;20105;-85
2021/12/24 11:15:46;;;;;;;6.22;3.17;;;7.60;99.90;;;;;;5065245;28;20070;-85
2021/12/24 11:18:21;;;;;;;11.35;7.25;;;7.50;99.90;;;;;;5067436;28;20043;-86
2021/12/24 11:20:56;;;;;;;6.40;3.67;;;7.40;99.90;;;;;;5071528;28;20145;-85
2021/12/24 11:23:31;;;;;;;5.43;3.17;;;7.30;99.90;;;;;;5069074;28;20417;-84
2021/12/24 11:26:10;;;;;;;5.45;3.22;;;7.30;99.90;;;;;;5064240;28;20290;-84
2021/12/24 11:28:36;;;;;;;5.03;2.53;;;7.20;99.90;;;;;;5100396;28;20055;-84
2021/12/24 11:31:08;;;;;;;3.80;2.50;;;7.10;99.90;;;;;;5064393;28;20046;-85
2021/12/24 11:33:36;;;;;;;4.78;2.83;;;7.00;99.90;;;;;;5093491;28;20043;-84
2021/12/24 11:36:07;;;;;;;4.47;3.05;;;7.00;99.90;;;;;;5083917;28;20045;-85
2021/12/24 11:38:36;;;;;;;7.13;3.90;;;7.00;99.90;;;;;;5084714;28;20062;-86
2021/12/24 11:41:05;;;;;;;6.65;3.42;;;7.00;99.90;;;;;;5084692;28;20032;-85
2021/12/24 11:43:34;;;;;;;5.00;2.90;;;6.90;99.90;;;;;;5061783;28;20130;-86
2021/12/24 11:46:04;;;;;;;6.68;2.70;;;6.90;99.90;;;;;;5080974;28;20286;-85
2021/12/24 11:48:32;;;;;;;3.17;1.50;;;6.90;99.90;;;;;;5067687;28;20460;-86
2021/12/24 11:51:04;;;;;;;7.45;2.97;;;6.90;99.90;;;;;;5068079;28;20032;-86
2021/12/24 11:53:33;;;;;;;5.43;2.88;;;6.90;99.90;;;;;;5070506;28;20055;-87
2021/12/24 11:56:07;;;;;;;3.15;1.50;;;6.80;99.90;;;;;;5072056;28;20032;-86
2021/12/24 11:58:40;;;;;;;3.55;1.95;;;6.90;99.90;;;;;;5092147;28;20473;-85
2021/12/24 12:01:06;;;;;;;4.13;2.33;;;6.90;99.90;;;;;;5088719;28;20063;-86
2021/12/24 12:03:49;;;;;;;10.95;4.97;;;6.90;99.90;;;;;;5064437;28;20501;-84
2021/12/24 12:06:17;;;;;;;6.28;3.72;;;6.90;99.90;;;;;;5075575;28;20080;-84
2021/12/24 12:08:53;;;;;;;5.70;3.20;;;6.90;99.90;;;;;;5082008;28;20035;-85
2021/12/24 12:11:27;;;;;;;5.80;3.08;;;6.80;99.90;;;;;;5074919;28;20842;-86
2021/12/24 12:14:01;;;;;;;5.68;3.28;;;6.90;99.90;;;;;;5084469;28;20093;-86
2021/12/24 12:16:51;;;;;;;12.63;6.40;;;6.80;99.90;;;;;;5067410;28;20486;-86
2021/12/24 12:22:44;;;;;;;19.60;10.27;;;6.80;99.90;;;;;;5107947;28;20087;-86
2021/12/24 12:25:13;;;;;;;6.40;3.10;;;6.80;99.90;;;;;;5115553;28;20047;-86
2021/12/24 12:27:51;;;;;;;6.30;3.30;;;6.80;99.90;;;;;;5112669;28;20032;-85
2021/12/24 12:30:18;;;;;;;6.38;3.55;;;6.80;99.90;;;;;;5099579;28;20051;-85
2021/12/24 12:32:44;;;;;;;4.53;3.08;;;6.80;99.90;;;;;;5098832;28;20028;-85
2021/12/24 12:35:11;;;;;;;6.18;3.55;;;6.80;99.90;;;;;;5127687;28;20040;-86
2021/12/24 12:37:47;;;;;;;3.67;2.40;;;6.80;99.90;;;;;;5105583;28;20074;-86
2021/12/24 12:40:13;;;;;;;3.83;2.50;;;6.80;99.90;;;;;;5073121;28;20040;-86
2021/12/24 12:42:56;;;;;;;3.33;1.80;;;6.80;99.90;;;;;;5071608;28;20406;-86
2021/12/24 12:45:43;;;;;;;4.05;2.70;;;6.90;99.90;;;;;;5089952;28;20090;-85
2021/12/24 12:48:11;;;;;;;3.33;2.50;;;6.70;99.90;;;;;;5065169;28;20048;-85
2021/12/24 12:50:40;;;;;;;4.57;3.08;;;6.70;99.90;;;;;;5069351;28;20030;-87
2021/12/24 12:53:28;;;;;;;4.25;2.92;;;6.70;99.90;;;;;;5092002;28;20040;-86
2021/12/24 12:56:19;;;;;;;4.93;3.20;;;6.70;99.90;;;;;;5085445;28;20055;-88
2021/12/24 12:58:47;;;;;;;6.53;3.35;;;6.70;99.90;;;;;;5078174;28;20033;-88
2021/12/24 13:01:17;;;;;;;4.13;2.60;;;6.70;99.90;;;;;;5085642;28;20047;-87
2021/12/24 13:04:06;;;;;;;4.78;3.28;;;6.70;99.90;;;;;;5067698;28;20035;-86
2021/12/24 13:06:35;;;;;;;6.55;5.60;;;6.70;99.90;;;;;;5058043;28;20044;-87
2021/12/24 13:09:04;;;;;;;7.22;6.53;;;6.80;99.90;;;;;;5092735;28;20188;-88
2021/12/24 13:11:38;;;;;;;6.88;4.63;;;6.80;99.90;;;;;;5084903;28;20040;-86
2021/12/24 13:14:05;;;;;;;5.50;3.70;;;6.80;99.90;;;;;;5087367;28;20436;-88
2021/12/24 13:16:42;;;;;;;4.90;3.15;;;6.80;99.90;;;;;;5085967;28;20428;-86
2021/12/24 13:24:38;;;;;;;6.03;4.20;;;6.80;99.90;;;;;;5084318;28;20131;-87
2021/12/24 13:27:04;;;;;;;4.47;3.20;;;6.80;99.90;;;;;;5086378;28;20028;-88
2021/12/24 13:29:30;;;;;;;4.38;2.72;;;6.80;99.90;;;;;;5084475;28;20113;-86
2021/12/24 13:31:57;;;;;;;5.90;3.42;;;6.80;99.90;;;;;;5073504;28;20481;-87
2021/12/24 13:34:24;;;;;;;3.95;2.78;;;6.80;99.90;;;;;;5065129;28;20062;-87
2021/12/24 13:36:51;;;;;;;4.90;3.15;;;6.80;99.90;;;;;;5087533;28;20047;-87
2021/12/24 13:39:20;;;;;;;5.68;3.25;;;6.80;99.90;;;;;;5063711;28;20570;-88
2021/12/24 13:41:46;;;;;;;5.93;3.65;;;6.80;99.90;;;;;;5069410;28;20047;-87
2021/12/24 13:44:25;;;;;;;5.13;3.50;;;6.80;99.90;;;;;;5063427;28;20039;-87
2021/12/24 13:46:57;;;;;;;4.43;2.88;;;6.90;99.90;;;;;;5066339;28;20036;-88
2021/12/24 13:49:40;;;;;;;5.28;3.63;;;6.90;99.90;;;;;;5078934;28;20409;-87
2021/12/24 13:54:50;;;;;;;4.60;3.50;;;6.90;99.90;;;;;;5091055;28;20051;-86
2021/12/24 13:57:17;;;;;;;5.28;4.22;;;6.80;99.90;;;;;;5103205;28;20186;-87
2021/12/24 13:59:49;;;;;;;5.90;4.20;;;6.90;99.90;;;;;;5084819;28;20036;-86
2021/12/24 14:02:15;;;;;;;5.88;3.63;;;6.80;99.90;;;;;;5063001;28;20036;-86
2021/12/24 14:04:40;;;;;;;6.55;4.53;;;6.80;99.90;;;;;;5090375;28;20088;-86
2021/12/24 14:07:08;;;;;;;6.00;3.25;;;6.80;99.90;;;;;;5070958;28;20075;-86
2021/12/24 14:09:34;;;;;;;4.75;2.90;;;6.80;99.90;;;;;;5087624;28;20056;-86
2021/12/24 14:12:03;;;;;;;4.93;3.33;;;6.90;99.90;;;;;;5106987;28;20043;-86
2021/12/24 14:14:51;;;;;;;4.45;2.80;;;6.80;99.90;;;;;;5065609;28;20084;-86
2021/12/24 14:22:24;;;;;;;4.97;2.92;;;6.80;99.90;;;;;;5096795;28;20051;-86
2021/12/24 14:25:13;;;;;;;4.93;3.05;;;6.80;99.90;;;;;;5078859;28;20040;-86
2021/12/24 14:27:45;;;;;;;5.28;2.65;;;6.80;99.90;;;;;;5068899;28;20512;-86
2021/12/24 14:30:15;;;;;;;5.28;3.08;;;6.80;99.90;;;;;;5101252;28;20524;-86
2021/12/24 14:32:43;;;;;;;4.80;2.70;;;6.80;99.90;;;;;;5064949;28;20032;-86
2021/12/24 14:35:20;;;;;;;4.55;2.90;;;6.80;99.90;;;;;;5077519;28;20048;-86
2021/12/24 14:38:17;;;;;;;4.78;3.28;;;6.80;99.90;;;;;;5078996;28;20040;-86
2021/12/24 14:40:43;;;;;;;6.05;3.70;;;6.80;99.90;;;;;;5080071;28;20078;-88